Capewater — PBPQ — position and weather

sailwx.info

Track history (hours):
 
Tides and Currents Weather Stations Pressure Air Temp Water Temp Dewpoint Dewpoint Depression Visibility Wind Speed Wind Dir Waves Ship Positions

Capewater

Last reported at 2014-Dec-22 12:34 UTC. Time now 2014-Dec-22 12:42 UTC.
Position N 54°31' W 000°23'.

Length 100 m; draft 7.4 m.

Type: Tanker. MMSI: 246346000.

Date/timePositionNaut miles runAvg speedWind from/ knotsBaromVisibWave heightAir tempDewpointWater temp
2014-Dec-22 12:34N 54°31' W 000°23'1313.1
2014-Dec-22 11:34N 54°20' W 000°10'1413.8
2014-Dec-22 10:33N 54°09' E 000°05'1514.7
2014-Dec-22 09:33N 53°56' E 000°15'1514.8
2014-Dec-22 08:33N 53°42' E 000°23'1312.7
2014-Dec-22 07:34N 53°33' E 000°08'1212.1
2014-Dec-22 06:34N 53°38' W 000°11'0 0.4
2014-Dec-22 05:32N 53°38' W 000°11'0 0.0
2014-Dec-22 04:26N 53°38' W 000°11'0 0.0
2014-Dec-22 03:29N 53°38' W 000°11'0 0.0
2014-Dec-22 02:32N 53°38' W 000°11'0 0.0
2014-Dec-22 01:32N 53°38' W 000°11'0 0.0
2014-Dec-22 00:32N 53°38' W 000°11'0 0.0
2014-Dec-21 23:32N 53°38' W 000°11'0 0.0
2014-Dec-21 22:29N 53°38' W 000°11'0 0.0
2014-Dec-21 21:32N 53°38' W 000°11'0 0.0
2014-Dec-21 20:32N 53°38' W 000°11'0 0.0
2014-Dec-21 19:29N 53°38' W 000°11'0 0.0
2014-Dec-21 18:32N 53°38' W 000°11'0 0.0
2014-Dec-21 17:23N 53°38' W 000°11'0 0.0
2014-Dec-21 16:32N 53°38' W 000°11'0 0.0
2014-Dec-21 15:26N 53°38' W 000°11'0 0.0
2014-Dec-21 14:29N 53°38' W 000°11'0 0.0
2014-Dec-21 13:29N 53°38' W 000°11'0 0.0
2014-Dec-21 12:33N 53°38' W 000°11'1 1.1
2014-Dec-21 11:34N 53°38' W 000°10'8 8.1
2014-Dec-21 10:33N 53°36' E 000°03'8 8.2
2014-Dec-21 09:34N 53°35' E 000°17'1110.7
2014-Dec-21 08:33N 53°43' E 000°29'1211.9
2014-Dec-21 07:34N 53°48' E 000°47'13510.2
2014-Dec-20 18:21N 54°03' E 004°35'4 4.7
2014-Dec-20 17:33N 54°03' E 004°41'4 3.9
2014-Dec-20 16:33N 54°02' E 004°48'3 3.3
2014-Dec-20 15:32N 54°01' E 004°54'4 4.0
2014-Dec-20 14:33N 54°01' E 005°00'4 4.1
2014-Dec-20 13:33N 54°01' E 005°07'4 4.4
2014-Dec-20 12:34N 54°00' E 005°15'4 4.1
2014-Dec-20 11:33N 54°00' E 005°22'5 4.5
2014-Dec-20 10:32N 53°58' E 005°29'4 4.5
2014-Dec-20 09:33N 53°56' E 005°35'4 3.6
2014-Dec-20 08:33N 53°54' E 005°41'3 3.1
2014-Dec-20 07:33N 53°53' E 005°45'3 2.8
2014-Dec-20 06:33N 53°51' E 005°49'2 1.8
2014-Dec-20 05:33N 53°50' E 005°52'1 1.5
2014-Dec-20 04:33N 53°49' E 005°54'2 1.9
2014-Dec-20 03:33N 53°48' E 005°56'5 4.7
2014-Dec-20 02:33N 53°44' E 005°60'5 5.3
2014-Dec-20 01:33N 53°39' E 006°02'5 5.4
2014-Dec-20 00:33N 53°38' E 006°11'8 7.5
2014-Dec-19 23:32N 53°37' E 006°23'9 9.7
2014-Dec-19 22:34N 53°34' E 006°39'1212.5
2014-Dec-19 21:34N 53°26' E 006°55'1010.4
2014-Dec-19 20:33N 53°20' E 007°09'2 2.3
2014-Dec-19 19:31N 53°21' E 007°12'0 0.0
2014-Dec-19 18:28N 53°21' E 007°12'0 0.0
2014-Dec-19 17:22N 53°21' E 007°12'0 0.0
2014-Dec-19 16:31N 53°21' E 007°12'0 0.0
2014-Dec-19 15:31N 53°21' E 007°12'0 0.0
2014-Dec-19 14:28N 53°21' E 007°12'0 0.0
2014-Dec-19 13:25N 53°21' E 007°12'0 0.0
2014-Dec-19 12:28N 53°21' E 007°12'0 0.0
2014-Dec-19 11:31N 53°21' E 007°12'0 0.0
2014-Dec-19 10:31N 53°21' E 007°12'0 0.0
2014-Dec-19 09:31N 53°21' E 007°12'0 0.0
2014-Dec-19 08:28N 53°21' E 007°12'0 0.0
2014-Dec-19 07:22N 53°21' E 007°12'0 0.0
2014-Dec-19 06:28N 53°21' E 007°12'0 0.0
2014-Dec-19 05:25N 53°21' E 007°12'0 0.0
2014-Dec-19 04:28N 53°21' E 007°12'0 0.0
2014-Dec-19 03:31N 53°21' E 007°12'0 0.0
2014-Dec-19 02:28N 53°21' E 007°12'0 0.0
2014-Dec-19 01:31N 53°21' E 007°12'0 0.0
2014-Dec-19 00:31N 53°21' E 007°12'1 1.0
2014-Dec-18 23:33N 53°20' E 007°11'7 7.1
2014-Dec-18 22:33N 53°21' E 006°59'1312.6
2014-Dec-18 21:33N 53°31' E 006°47'1110.7
2014-Dec-18 20:34N 53°37' E 006°32'1414.0
2014-Dec-18 19:34N 53°38' E 006°08'1313.4
2014-Dec-18 18:33N 53°38' E 005°45'1212.4
2014-Dec-18 17:33N 53°34' E 005°25'1212.1
2014-Dec-18 16:33N 53°30' E 005°06'1312.5
2014-Dec-18 15:33N 53°25' E 004°47'1212.1
2014-Dec-18 14:33N 53°15' E 004°36'1313.6
2014-Dec-18 13:34N 53°03' E 004°25'1313.5
2014-Dec-18 12:34N 52°51' E 004°14'1313.5
2014-Dec-18 11:34N 52°41' E 004°01'1313.2
2014-Dec-18 10:34N 52°31' E 003°45'3014.7
2014-Dec-18 08:29N 52°10' E 003°10'1414.7
2014-Dec-18 07:33N 51°60' E 002°55'2814.0
2014-Dec-18 05:33N 51°38' E 002°26'1313.4
2014-Dec-18 04:33N 51°28' E 002°13'1413.5
2014-Dec-18 03:33N 51°15' E 002°05'1313.0
2014-Dec-18 02:33N 51°08' E 001°48'1313.2
2014-Dec-18 01:34N 50°58' E 001°34'10112.6
2014-Dec-17 17:33N 49°39' W 000°05'1111.0
2014-Dec-17 16:33N 49°30' E 000°03'5 4.7
2014-Dec-17 15:33N 49°29' E 000°10'3 1.2
2014-Dec-17 13:30N 49°28' E 000°14'0 0.0
2014-Dec-17 11:24N 49°28' E 000°14'0 0.0
2014-Dec-17 10:33N 49°28' E 000°14'0 0.0
2014-Dec-17 09:30N 49°28' E 000°14'0 0.0
2014-Dec-17 08:18N 49°28' E 000°14'0 0.0
2014-Dec-17 05:30N 49°28' E 000°14'0 0.0
2014-Dec-17 02:21N 49°28' E 000°14'0 0.0
2014-Dec-17 00:18N 49°28' E 000°14'1 0.3
2014-Dec-16 22:33N 49°28' E 000°13'4 3.6
2014-Dec-16 21:33N 49°28' E 000°08'7 6.0
2014-Dec-16 20:24N 49°29' W 000°03'0 0.0
2014-Dec-16 17:33N 49°29' W 000°03'0 0.0
2014-Dec-16 16:30N 49°29' W 000°03'0 0.0
2014-Dec-16 15:33N 49°29' W 000°03'0 0.0
2014-Dec-16 14:18N 49°29' W 000°03'0 0.0
2014-Dec-16 13:27N 49°29' W 000°03'0 0.0
2014-Dec-16 11:27N 49°29' W 000°03'0 0.1
2014-Dec-16 10:15N 49°29' W 000°03'0 0.0
2014-Dec-16 09:15N 49°29' W 000°03'0 0.0
2014-Dec-16 08:30N 49°29' W 000°03'0 0.1
2014-Dec-16 07:30N 49°29' W 000°03'0 0.0
2014-Dec-16 06:33N 49°29' W 000°03'0 0.0
2014-Dec-16 05:33N 49°29' W 000°03'0 0.0
2014-Dec-16 04:33N 49°29' W 000°02'0 0.0
2014-Dec-16 02:33N 49°29' W 000°02'0 0.0
2014-Dec-16 01:06N 49°29' W 000°02'0 0.0
2014-Dec-15 23:18N 49°29' W 000°03'0 0.0
2014-Dec-15 22:24N 49°29' W 000°03'0 0.1
2014-Dec-15 21:30N 49°29' W 000°03'0 0.0
2014-Dec-15 20:24N 49°29' W 000°03'0 0.0
2014-Dec-15 19:30N 49°29' W 000°03'0 0.0
2014-Dec-15 18:30N 49°29' W 000°02'0 0.0
2014-Dec-15 17:30N 49°29' W 000°02'0 0.0
2014-Dec-15 16:24N 49°29' W 000°02'0 0.0
2014-Dec-15 15:33N 49°29' W 000°02'0 0.1
2014-Dec-15 14:33N 49°30' W 000°02'1111.3
2014-Dec-15 13:33N 49°33' W 000°19'6411.8
2014-Dec-15 08:05N 50°33' E 000°17'713.4
2014-Dec-15 07:33N 50°35' E 000°28'1312.7
2014-Dec-15 06:33N 50°42' E 000°44'1110.8
2014-Dec-15 05:33N 50°48' E 000°58'9 8.6
2014-Dec-15 04:32N 50°54' E 001°09'7 7.1
2014-Dec-15 03:34N 50°59' E 001°17'5 4.9
2014-Dec-15 02:33N 51°02' E 001°23'5 4.5
2014-Dec-15 01:33N 51°05' E 001°28'6 5.9
2014-Dec-15 00:33N 51°08' E 001°36'8 7.8
2014-Dec-14 23:33N 51°13' E 001°45'1010.1
2014-Dec-14 22:33N 51°22' E 001°54'1110.6
2014-Dec-14 21:34N 51°30' E 002°05'10 9.9
2014-Dec-14 20:33N 51°37' E 002°16'6110.1
2014-Dec-14 14:33N 52°03' E 003°45'1312.9
2014-Dec-14 13:33N 51°59' E 004°04'11 9.7
2014-Dec-14 12:28N 51°53' E 004°18'0 0.0
2014-Dec-14 11:31N 51°53' E 004°18'0 0.0
2014-Dec-14 10:31N 51°53' E 004°18'0 0.0
2014-Dec-14 09:31N 51°53' E 004°18'0 0.0
2014-Dec-14 08:31N 51°53' E 004°18'0 0.0
2014-Dec-14 07:31N 51°53' E 004°18'0 0.0
2014-Dec-14 06:28N 51°53' E 004°18'0 0.0
2014-Dec-14 05:31N 51°53' E 004°18'0 0.0
2014-Dec-14 04:31N 51°53' E 004°18'0 0.0
2014-Dec-14 03:31N 51°53' E 004°18'0 0.0
2014-Dec-14 02:31N 51°53' E 004°18'0 0.0
2014-Dec-14 01:31N 51°53' E 004°18'0 0.0
2014-Dec-14 00:31N 51°53' E 004°18'0 0.0
2014-Dec-13 23:25N 51°53' E 004°18'0 0.0
2014-Dec-13 22:31N 51°53' E 004°18'0 0.0
2014-Dec-13 21:31N 51°53' E 004°18'0 0.0
2014-Dec-13 20:31N 51°53' E 004°18'0 0.0
2014-Dec-13 19:25N 51°53' E 004°18'0 0.0
2014-Dec-13 18:31N 51°53' E 004°18'0 0.0
2014-Dec-13 17:28N 51°53' E 004°18'0 0.0
2014-Dec-13 16:26N 51°53' E 004°18'3 3.6
2014-Dec-13 15:33N 51°55' E 004°14'1212.2
2014-Dec-13 14:33N 51°60' E 003°56'1010.2
2014-Dec-13 13:33N 52°03' E 003°40'5211.8
2014-Dec-13 09:12N 52°32' E 002°31'711.4
2014-Dec-13 08:33N 52°37' E 002°22'1110.8
2014-Dec-13 07:32N 52°43' E 002°07'1010.2
2014-Dec-13 06:33N 52°48' E 001°52'10 9.8
2014-Dec-13 05:33N 52°53' E 001°38'10 9.7
2014-Dec-13 04:33N 53°01' E 001°30'1110.6
2014-Dec-13 03:33N 53°09' E 001°19'3811.2
2014-Dec-13 00:07N 53°42' E 000°47'711.6
2014-Dec-12 23:33N 53°48' E 000°41'1211.8
2014-Dec-12 22:33N 53°58' E 000°30'1211.9
2014-Dec-12 21:33N 54°08' E 000°20'1212.1
2014-Dec-12 20:33N 54°19' E 000°11'1212.3
2014-Dec-12 19:33N 54°29' W 000°02'1212.5
2014-Dec-12 18:33N 54°38' W 000°16'1212.0
2014-Dec-12 17:33N 54°40' W 000°36'1312.2
2014-Dec-12 16:31N 54°40' W 000°58'8 3.7
2014-Dec-12 14:20N 54°36' W 001°11'0 0.0
2014-Dec-12 13:08N 54°36' W 001°11'  
Track history (hours):
 
Tides and Currents Weather Stations Pressure Air Temp Water Temp Dewpoint Dewpoint Depression Visibility Wind Speed Wind Dir Waves Ship Positions

Capewater

Last reported at 2014-Dec-22 12:34 UTC. Time now 2014-Dec-22 12:42 UTC.
Position N 54°31' W 000°23'.

Length 100 m; draft 7.4 m.

Type: Tanker. MMSI: 246346000.

Date/timePositionNaut miles runAvg speedWind from/ knotsBaromVisibWave heightAir tempDewpointWater temp
2014-Dec-22 12:34N 54°31' W 000°23'1313.1
2014-Dec-22 11:34N 54°20' W 000°10'1413.8
2014-Dec-22 10:33N 54°09' E 000°05'1514.7
2014-Dec-22 09:33N 53°56' E 000°15'1514.8
2014-Dec-22 08:33N 53°42' E 000°23'1312.7
2014-Dec-22 07:34N 53°33' E 000°08'1212.1
2014-Dec-22 06:34N 53°38' W 000°11'0 0.4
2014-Dec-22 05:32N 53°38' W 000°11'0 0.0
2014-Dec-22 04:26N 53°38' W 000°11'0 0.0
2014-Dec-22 03:29N 53°38' W 000°11'0 0.0
2014-Dec-22 02:32N 53°38' W 000°11'0 0.0
2014-Dec-22 01:32N 53°38' W 000°11'0 0.0
2014-Dec-22 00:32N 53°38' W 000°11'0 0.0
2014-Dec-21 23:32N 53°38' W 000°11'0 0.0
2014-Dec-21 22:29N 53°38' W 000°11'0 0.0
2014-Dec-21 21:32N 53°38' W 000°11'0 0.0
2014-Dec-21 20:32N 53°38' W 000°11'0 0.0
2014-Dec-21 19:29N 53°38' W 000°11'0 0.0
2014-Dec-21 18:32N 53°38' W 000°11'0 0.0
2014-Dec-21 17:23N 53°38' W 000°11'0 0.0
2014-Dec-21 16:32N 53°38' W 000°11'0 0.0
2014-Dec-21 15:26N 53°38' W 000°11'0 0.0
2014-Dec-21 14:29N 53°38' W 000°11'0 0.0
2014-Dec-21 13:29N 53°38' W 000°11'0 0.0
2014-Dec-21 12:33N 53°38' W 000°11'1 1.1
2014-Dec-21 11:34N 53°38' W 000°10'8 8.1
2014-Dec-21 10:33N 53°36' E 000°03'8 8.2
2014-Dec-21 09:34N 53°35' E 000°17'1110.7
2014-Dec-21 08:33N 53°43' E 000°29'1211.9
2014-Dec-21 07:34N 53°48' E 000°47'13510.2
2014-Dec-20 18:21N 54°03' E 004°35'4 4.7
2014-Dec-20 17:33N 54°03' E 004°41'4 3.9
2014-Dec-20 16:33N 54°02' E 004°48'3 3.3
2014-Dec-20 15:32N 54°01' E 004°54'4 4.0
2014-Dec-20 14:33N 54°01' E 005°00'4 4.1
2014-Dec-20 13:33N 54°01' E 005°07'4 4.4
2014-Dec-20 12:34N 54°00' E 005°15'4 4.1
2014-Dec-20 11:33N 54°00' E 005°22'5 4.5
2014-Dec-20 10:32N 53°58' E 005°29'4 4.5
2014-Dec-20 09:33N 53°56' E 005°35'4 3.6
2014-Dec-20 08:33N 53°54' E 005°41'3 3.1
2014-Dec-20 07:33N 53°53' E 005°45'3 2.8
2014-Dec-20 06:33N 53°51' E 005°49'2 1.8
2014-Dec-20 05:33N 53°50' E 005°52'1 1.5
2014-Dec-20 04:33N 53°49' E 005°54'2 1.9
2014-Dec-20 03:33N 53°48' E 005°56'5 4.7
2014-Dec-20 02:33N 53°44' E 005°60'5 5.3
2014-Dec-20 01:33N 53°39' E 006°02'5 5.4
2014-Dec-20 00:33N 53°38' E 006°11'8 7.5
2014-Dec-19 23:32N 53°37' E 006°23'9 9.7
2014-Dec-19 22:34N 53°34' E 006°39'1212.5
2014-Dec-19 21:34N 53°26' E 006°55'1010.4
2014-Dec-19 20:33N 53°20' E 007°09'2 2.3
2014-Dec-19 19:31N 53°21' E 007°12'0 0.0
2014-Dec-19 18:28N 53°21' E 007°12'0 0.0
2014-Dec-19 17:22N 53°21' E 007°12'0 0.0
2014-Dec-19 16:31N 53°21' E 007°12'0 0.0
2014-Dec-19 15:31N 53°21' E 007°12'0 0.0
2014-Dec-19 14:28N 53°21' E 007°12'0 0.0
2014-Dec-19 13:25N 53°21' E 007°12'0 0.0
2014-Dec-19 12:28N 53°21' E 007°12'0 0.0
2014-Dec-19 11:31N 53°21' E 007°12'0 0.0
2014-Dec-19 10:31N 53°21' E 007°12'0 0.0
2014-Dec-19 09:31N 53°21' E 007°12'0 0.0
2014-Dec-19 08:28N 53°21' E 007°12'0 0.0
2014-Dec-19 07:22N 53°21' E 007°12'0 0.0
2014-Dec-19 06:28N 53°21' E 007°12'0 0.0
2014-Dec-19 05:25N 53°21' E 007°12'0 0.0
2014-Dec-19 04:28N 53°21' E 007°12'0 0.0
2014-Dec-19 03:31N 53°21' E 007°12'0 0.0
2014-Dec-19 02:28N 53°21' E 007°12'0 0.0
2014-Dec-19 01:31N 53°21' E 007°12'0 0.0
2014-Dec-19 00:31N 53°21' E 007°12'1 1.0
2014-Dec-18 23:33N 53°20' E 007°11'7 7.1
2014-Dec-18 22:33N 53°21' E 006°59'1312.6
2014-Dec-18 21:33N 53°31' E 006°47'1110.7
2014-Dec-18 20:34N 53°37' E 006°32'1414.0
2014-Dec-18 19:34N 53°38' E 006°08'1313.4
2014-Dec-18 18:33N 53°38' E 005°45'1212.4
2014-Dec-18 17:33N 53°34' E 005°25'1212.1
2014-Dec-18 16:33N 53°30' E 005°06'1312.5
2014-Dec-18 15:33N 53°25' E 004°47'1212.1
2014-Dec-18 14:33N 53°15' E 004°36'1313.6
2014-Dec-18 13:34N 53°03' E 004°25'1313.5
2014-Dec-18 12:34N 52°51' E 004°14'1313.5
2014-Dec-18 11:34N 52°41' E 004°01'1313.2
2014-Dec-18 10:34N 52°31' E 003°45'3014.7
2014-Dec-18 08:29N 52°10' E 003°10'1414.7
2014-Dec-18 07:33N 51°60' E 002°55'2814.0
2014-Dec-18 05:33N 51°38' E 002°26'1313.4
2014-Dec-18 04:33N 51°28' E 002°13'1413.5
2014-Dec-18 03:33N 51°15' E 002°05'1313.0
2014-Dec-18 02:33N 51°08' E 001°48'1313.2
2014-Dec-18 01:34N 50°58' E 001°34'10112.6
2014-Dec-17 17:33N 49°39' W 000°05'1111.0
2014-Dec-17 16:33N 49°30' E 000°03'5 4.7
2014-Dec-17 15:33N 49°29' E 000°10'3 1.2
2014-Dec-17 13:30N 49°28' E 000°14'0 0.0
2014-Dec-17 11:24N 49°28' E 000°14'0 0.0
2014-Dec-17 10:33N 49°28' E 000°14'0 0.0
2014-Dec-17 09:30N 49°28' E 000°14'0 0.0
2014-Dec-17 08:18N 49°28' E 000°14'0 0.0
2014-Dec-17 05:30N 49°28' E 000°14'0 0.0
2014-Dec-17 02:21N 49°28' E 000°14'0 0.0
2014-Dec-17 00:18N 49°28' E 000°14'1 0.3
2014-Dec-16 22:33N 49°28' E 000°13'4 3.6
2014-Dec-16 21:33N 49°28' E 000°08'7 6.0
2014-Dec-16 20:24N 49°29' W 000°03'0 0.0
2014-Dec-16 17:33N 49°29' W 000°03'0 0.0
2014-Dec-16 16:30N 49°29' W 000°03'0 0.0
2014-Dec-16 15:33N 49°29' W 000°03'0 0.0
2014-Dec-16 14:18N 49°29' W 000°03'0 0.0
2014-Dec-16 13:27N 49°29' W 000°03'0 0.0
2014-Dec-16 11:27N 49°29' W 000°03'0 0.1
2014-Dec-16 10:15N 49°29' W 000°03'0 0.0
2014-Dec-16 09:15N 49°29' W 000°03'0 0.0
2014-Dec-16 08:30N 49°29' W 000°03'0 0.1
2014-Dec-16 07:30N 49°29' W 000°03'0 0.0
2014-Dec-16 06:33N 49°29' W 000°03'0 0.0
2014-Dec-16 05:33N 49°29' W 000°03'0 0.0
2014-Dec-16 04:33N 49°29' W 000°02'0 0.0
2014-Dec-16 02:33N 49°29' W 000°02'0 0.0
2014-Dec-16 01:06N 49°29' W 000°02'0 0.0
2014-Dec-15 23:18N 49°29' W 000°03'0 0.0
2014-Dec-15 22:24N 49°29' W 000°03'0 0.1
2014-Dec-15 21:30N 49°29' W 000°03'0 0.0
2014-Dec-15 20:24N 49°29' W 000°03'0 0.0
2014-Dec-15 19:30N 49°29' W 000°03'0 0.0
2014-Dec-15 18:30N 49°29' W 000°02'0 0.0
2014-Dec-15 17:30N 49°29' W 000°02'0 0.0
2014-Dec-15 16:24N 49°29' W 000°02'0 0.0
2014-Dec-15 15:33N 49°29' W 000°02'0 0.1
2014-Dec-15 14:33N 49°30' W 000°02'1111.3
2014-Dec-15 13:33N 49°33' W 000°19'6411.8
2014-Dec-15 08:05N 50°33' E 000°17'713.4
2014-Dec-15 07:33N 50°35' E 000°28'1312.7
2014-Dec-15 06:33N 50°42' E 000°44'1110.8
2014-Dec-15 05:33N 50°48' E 000°58'9 8.6
2014-Dec-15 04:32N 50°54' E 001°09'7 7.1
2014-Dec-15 03:34N 50°59' E 001°17'5 4.9
2014-Dec-15 02:33N 51°02' E 001°23'5 4.5
2014-Dec-15 01:33N 51°05' E 001°28'6 5.9
2014-Dec-15 00:33N 51°08' E 001°36'8 7.8
2014-Dec-14 23:33N 51°13' E 001°45'1010.1
2014-Dec-14 22:33N 51°22' E 001°54'1110.6
2014-Dec-14 21:34N 51°30' E 002°05'10 9.9
2014-Dec-14 20:33N 51°37' E 002°16'6110.1
2014-Dec-14 14:33N 52°03' E 003°45'1312.9
2014-Dec-14 13:33N 51°59' E 004°04'11 9.7
2014-Dec-14 12:28N 51°53' E 004°18'0 0.0
2014-Dec-14 11:31N 51°53' E 004°18'0 0.0
2014-Dec-14 10:31N 51°53' E 004°18'0 0.0
2014-Dec-14 09:31N 51°53' E 004°18'0 0.0
2014-Dec-14 08:31N 51°53' E 004°18'0 0.0
2014-Dec-14 07:31N 51°53' E 004°18'0 0.0
2014-Dec-14 06:28N 51°53' E 004°18'0 0.0
2014-Dec-14 05:31N 51°53' E 004°18'0 0.0
2014-Dec-14 04:31N 51°53' E 004°18'0 0.0
2014-Dec-14 03:31N 51°53' E 004°18'0 0.0
2014-Dec-14 02:31N 51°53' E 004°18'0 0.0
2014-Dec-14 01:31N 51°53' E 004°18'0 0.0
2014-Dec-14 00:31N 51°53' E 004°18'0 0.0
2014-Dec-13 23:25N 51°53' E 004°18'0 0.0
2014-Dec-13 22:31N 51°53' E 004°18'0 0.0
2014-Dec-13 21:31N 51°53' E 004°18'0 0.0
2014-Dec-13 20:31N 51°53' E 004°18'0 0.0
2014-Dec-13 19:25N 51°53' E 004°18'0 0.0
2014-Dec-13 18:31N 51°53' E 004°18'0 0.0
2014-Dec-13 17:28N 51°53' E 004°18'0 0.0
2014-Dec-13 16:26N 51°53' E 004°18'3 3.6
2014-Dec-13 15:33N 51°55' E 004°14'1212.2
2014-Dec-13 14:33N 51°60' E 003°56'1010.2
2014-Dec-13 13:33N 52°03' E 003°40'5211.8
2014-Dec-13 09:12N 52°32' E 002°31'711.4
2014-Dec-13 08:33N 52°37' E 002°22'1110.8
2014-Dec-13 07:32N 52°43' E 002°07'1010.2
2014-Dec-13 06:33N 52°48' E 001°52'10 9.8
2014-Dec-13 05:33N 52°53' E 001°38'10 9.7
2014-Dec-13 04:33N 53°01' E 001°30'1110.6
2014-Dec-13 03:33N 53°09' E 001°19'3811.2
2014-Dec-13 00:07N 53°42' E 000°47'711.6
2014-Dec-12 23:33N 53°48' E 000°41'1211.8
2014-Dec-12 22:33N 53°58' E 000°30'1211.9
2014-Dec-12 21:33N 54°08' E 000°20'1212.1
2014-Dec-12 20:33N 54°19' E 000°11'1212.3
2014-Dec-12 19:33N 54°29' W 000°02'1212.5
2014-Dec-12 18:33N 54°38' W 000°16'1212.0
2014-Dec-12 17:33N 54°40' W 000°36'1312.2
2014-Dec-12 16:31N 54°40' W 000°58'8 3.7
2014-Dec-12 14:20N 54°36' W 001°11'0 0.0
2014-Dec-12 13:08N 54°36' W 001°11'  

Dump ship's entire track history